Terminal Aerodrome Forecast
Issued by NWS

Home | Current Version | Previous Version | Text Only | Print | Product List | Glossary On
Versions: 1 2 3 4 5 6 7 8 9 10 11 12 13 14 15 16 17 18 19
731
FTUS43 KAPX 100722 AAA
TAFMBL
TAF AMD
KMBL 100722Z 1007/1106 33012G24KT 2SM -SHSN BLSN SCT015 OVC022
      TEMPO 1007/1010 1/2SM SHSN BLSN OVC006
     FM101000 33010G23KT 2SM -SHSN BLSN SCT015 OVC025
      TEMPO 1010/1014 1/2SM SHSN OVC010
     FM101400 34014G24KT 2SM -SHSN BLSN SCT015 OVC025
     FM110200 33010G19KT 3SM -SHSN BLSN SCT015 OVC028
      AMD LTD TO CLD VIS AND WIND=

USA.gov is the U.S. government's official web portal to all federal, state and local government web resources and services.